createdAt,value
2023-01-23T00:00:04.781Z,0.90
2023-01-23T00:02:32.643Z,0.80
2023-01-23T00:05:00.484Z,0.70
2023-01-23T00:07:29.672Z,0.70
2023-01-23T00:09:57.483Z,0.80
2023-01-23T00:12:25.720Z,0.80
2023-01-23T00:14:53.521Z,0.80
2023-01-23T00:17:21.281Z,0.70
2023-01-23T00:19:49.063Z,0.80
2023-01-23T00:22:17.173Z,0.80
2023-01-23T00:24:46.316Z,0.80
2023-01-23T00:27:14.095Z,0.77
2023-01-23T00:29:41.921Z,0.70
2023-01-23T00:32:09.744Z,0.80
2023-01-23T00:34:38.530Z,0.80
2023-01-23T00:37:06.373Z,0.70
2023-01-23T00:39:34.079Z,0.70
2023-01-23T00:42:03.328Z,0.70
2023-01-23T00:44:31.563Z,0.60
2023-01-23T00:46:59.309Z,0.70
2023-01-23T00:49:27.136Z,0.70
2023-01-23T00:51:56.480Z,0.70
2023-01-23T00:54:25.996Z,0.73
2023-01-23T00:56:54.069Z,0.70
2023-01-23T00:59:23.210Z,0.60
2023-01-23T01:01:50.997Z,0.70
2023-01-23T01:04:18.864Z,0.60
2023-01-23T01:06:46.627Z,0.70
2023-01-23T01:09:14.373Z,0.70
2023-01-23T01:11:42.301Z,0.60
2023-01-23T01:14:13.174Z,0.70
2023-01-23T01:16:45.486Z,0.70
2023-01-23T01:19:13.659Z,0.70
2023-01-23T01:21:42.305Z,0.70
2023-01-23T01:24:10.546Z,0.70
2023-01-23T01:26:38.341Z,0.70
2023-01-23T01:29:06.132Z,0.70
2023-01-23T01:31:33.996Z,0.70
2023-01-23T01:34:03.378Z,0.70
2023-01-23T01:36:31.113Z,0.70
2023-01-23T01:38:59.070Z,0.70
2023-01-23T01:41:26.828Z,0.70
2023-01-23T01:43:57.171Z,0.70
2023-01-23T01:46:25.361Z,0.70
2023-01-23T01:49:10.863Z,0.63
2023-01-23T01:51:42.327Z,0.80
2023-01-23T01:54:15.113Z,0.80
2023-01-23T01:56:45.770Z,0.70
2023-01-23T01:59:14.435Z,0.70
2023-01-23T02:01:43.288Z,0.70
2023-01-23T02:04:11.354Z,0.67
2023-01-23T02:06:40.621Z,0.70
2023-01-23T02:09:11.246Z,0.73
2023-01-23T02:11:39.062Z,0.70
2023-01-23T02:14:07.698Z,0.70
2023-01-23T02:16:41.063Z,0.70
2023-01-23T02:19:12.228Z,0.70
2023-01-23T02:21:43.408Z,0.70
2023-01-23T02:24:16.933Z,0.60
2023-01-23T02:26:46.997Z,0.77
2023-01-23T02:29:15.454Z,0.70
2023-01-23T02:31:45.281Z,0.70
2023-01-23T02:34:14.201Z,0.60
2023-01-23T02:36:42.966Z,0.70
2023-01-23T02:39:13.433Z,0.70
2023-01-23T02:41:42.781Z,0.70
2023-01-23T02:44:13.837Z,0.70
2023-01-23T02:46:41.660Z,0.80
2023-01-23T02:49:09.665Z,0.77
2023-01-23T02:51:37.526Z,0.60
2023-01-23T02:54:05.577Z,0.70
2023-01-23T02:56:34.050Z,0.77
2023-01-23T02:59:33.801Z,0.80
2023-01-23T03:02:04.269Z,0.70
2023-01-23T03:04:32.044Z,0.70
2023-01-23T03:07:00.184Z,0.70
2023-01-23T03:09:28.017Z,0.70
2023-01-23T03:11:55.812Z,0.60
2023-01-23T03:14:24.704Z,0.70
2023-01-23T03:16:54.027Z,0.60
2023-01-23T03:19:25.195Z,0.70
2023-01-23T03:21:53.279Z,0.70
2023-01-23T03:24:21.498Z,0.70
2023-01-23T03:26:49.879Z,0.70
2023-01-23T03:29:35.411Z,0.70
2023-01-23T03:32:03.459Z,0.70
2023-01-23T03:34:32.835Z,0.60
2023-01-23T03:37:01.338Z,0.70
2023-01-23T03:39:46.524Z,0.70
2023-01-23T03:42:14.332Z,0.70
2023-01-23T03:44:42.244Z,0.80
2023-01-23T03:47:10.181Z,0.70
2023-01-23T03:49:39.384Z,0.80
2023-01-23T03:52:07.259Z,0.70
2023-01-23T03:54:35.099Z,0.70
2023-01-23T03:57:02.825Z,0.80
2023-01-23T03:59:30.637Z,0.70
2023-01-23T04:01:58.446Z,0.80
2023-01-23T04:04:26.201Z,0.70
2023-01-23T04:06:55.413Z,0.80
2023-01-23T04:09:27.553Z,0.70
2023-01-23T04:11:55.477Z,0.80
2023-01-23T04:14:23.367Z,0.70
2023-01-23T04:16:51.282Z,0.70
2023-01-23T04:19:19.884Z,0.70
2023-01-23T04:21:48.681Z,0.70
2023-01-23T04:24:17.959Z,0.80
2023-01-23T04:26:46.136Z,0.70
2023-01-23T04:29:14.047Z,0.80
2023-01-23T04:31:41.869Z,0.80
2023-01-23T04:34:09.883Z,0.70
2023-01-23T04:36:37.706Z,0.70
2023-01-23T04:39:05.581Z,0.70
2023-01-23T04:41:34.760Z,0.70
2023-01-23T04:44:20.322Z,0.70
2023-01-23T04:46:49.993Z,0.70
2023-01-23T04:49:18.784Z,0.60
2023-01-23T04:51:48.105Z,0.60
2023-01-23T04:54:16.105Z,0.60
2023-01-23T04:56:45.785Z,0.80
2023-01-23T04:59:13.671Z,0.70
2023-01-23T05:01:41.435Z,0.60
2023-01-23T05:04:09.276Z,0.70
2023-01-23T05:06:37.271Z,0.70
2023-01-23T05:09:05.647Z,0.70
2023-01-23T05:11:33.414Z,0.60
2023-01-23T05:14:02.624Z,0.60
2023-01-23T05:16:30.402Z,0.70
2023-01-23T05:18:58.265Z,0.70
2023-01-23T05:21:26.022Z,0.60
2023-01-23T05:23:53.757Z,0.60
2023-01-23T05:26:21.843Z,0.70
2023-01-23T05:28:49.658Z,0.70
2023-01-23T05:31:19.014Z,0.80
2023-01-23T05:33:46.905Z,0.70
2023-01-23T05:36:15.955Z,0.80
2023-01-23T05:38:45.789Z,0.80
2023-01-23T05:41:13.722Z,0.73
2023-01-23T05:43:41.543Z,0.90
2023-01-23T05:46:09.314Z,0.70
2023-01-23T05:48:38.529Z,0.90
2023-01-23T05:51:06.628Z,0.70
2023-01-23T05:53:34.423Z,0.70
2023-01-23T05:56:06.264Z,0.77
2023-01-23T05:58:34.040Z,0.60
2023-01-23T06:01:03.051Z,0.70
2023-01-23T06:03:30.893Z,0.80
2023-01-23T06:06:01.507Z,0.80
2023-01-23T06:08:29.323Z,0.70
2023-01-23T06:10:58.627Z,0.80
2023-01-23T06:13:26.617Z,0.80
2023-01-23T06:15:54.456Z,0.80
2023-01-23T06:18:22.210Z,0.70
2023-01-23T06:20:50.050Z,0.70
2023-01-23T06:23:19.207Z,0.80
2023-01-23T06:25:46.917Z,0.70
2023-01-23T06:28:14.737Z,0.80
2023-01-23T06:30:42.525Z,0.80
2023-01-23T06:33:10.323Z,0.70
2023-01-23T06:35:38.108Z,0.70
2023-01-23T06:38:05.921Z,0.73
2023-01-23T06:40:35.083Z,0.70
2023-01-23T06:43:02.977Z,0.80
2023-01-23T06:45:30.776Z,0.73
2023-01-23T06:47:58.551Z,0.70
2023-01-23T06:50:26.369Z,0.80
2023-01-23T06:52:54.326Z,0.80
2023-01-23T06:55:22.068Z,0.80
2023-01-23T06:57:51.349Z,0.80
2023-01-23T07:00:19.865Z,0.73
2023-01-23T07:02:47.800Z,0.70
2023-01-23T07:05:15.775Z,0.80
2023-01-23T07:07:43.569Z,0.80
2023-01-23T07:10:12.176Z,0.80
2023-01-23T07:12:40.072Z,0.70
2023-01-23T07:15:10.345Z,0.60
2023-01-23T07:17:38.112Z,0.80
2023-01-23T07:20:06.285Z,0.80
2023-01-23T07:22:34.095Z,0.70
2023-01-23T07:25:01.950Z,0.80
2023-01-23T07:27:29.758Z,0.80
2023-01-23T07:29:57.538Z,0.80
2023-01-23T07:32:26.787Z,0.70
2023-01-23T07:34:54.604Z,0.70
2023-01-23T07:37:22.365Z,0.90
2023-01-23T07:39:50.765Z,0.80
2023-01-23T07:42:18.511Z,0.80
2023-01-23T07:44:46.601Z,0.70
2023-01-23T07:47:14.429Z,0.70
2023-01-23T07:49:43.626Z,0.60
2023-01-23T07:52:11.593Z,0.70
2023-01-23T07:54:39.388Z,0.80
2023-01-23T07:57:07.191Z,0.70
2023-01-23T07:59:34.894Z,0.80
2023-01-23T08:02:02.635Z,0.80
2023-01-23T08:04:30.440Z,0.70
2023-01-23T08:06:59.634Z,0.80
2023-01-23T08:09:27.421Z,0.70
2023-01-23T08:11:55.219Z,0.70
2023-01-23T08:14:23.092Z,0.80
2023-01-23T08:16:51.372Z,0.80
2023-01-23T08:19:19.431Z,0.70
2023-01-23T08:21:47.705Z,0.80
2023-01-23T08:24:16.859Z,0.70
2023-01-23T08:26:44.702Z,0.80
2023-01-23T08:29:12.971Z,0.90
2023-01-23T08:31:41.190Z,0.80
2023-01-23T08:34:09.037Z,0.70
2023-01-23T08:36:36.873Z,0.83
2023-01-23T08:39:04.823Z,0.90
2023-01-23T08:41:34.034Z,0.80
2023-01-23T08:44:01.949Z,0.80
2023-01-23T08:46:30.089Z,0.70
2023-01-23T08:48:57.857Z,0.70
2023-01-23T08:51:25.732Z,0.80
2023-01-23T08:53:54.274Z,0.83
2023-01-23T08:56:24.203Z,0.80
2023-01-23T08:58:54.329Z,0.80
2023-01-23T09:01:23.039Z,0.80
2023-01-23T09:03:50.970Z,0.90
2023-01-23T09:06:19.360Z,0.80
2023-01-23T09:08:47.245Z,0.80
2023-01-23T09:11:15.609Z,0.80
2023-01-23T09:13:43.533Z,0.77
2023-01-23T09:16:12.813Z,0.70
2023-01-23T09:18:40.597Z,0.80
2023-01-23T09:21:09.108Z,0.80
2023-01-23T09:23:37.136Z,0.80
2023-01-23T09:26:05.386Z,0.70
2023-01-23T09:28:33.174Z,0.80
2023-01-23T09:31:03.699Z,0.60
2023-01-23T09:33:32.940Z,0.70
2023-01-23T09:36:00.707Z,0.60
2023-01-23T09:38:28.591Z,0.70
2023-01-23T09:40:57.449Z,0.70
2023-01-23T09:43:26.305Z,0.87
2023-01-23T09:46:00.144Z,0.70
2023-01-23T09:48:29.582Z,0.70
2023-01-23T09:51:01.952Z,0.70
2023-01-23T09:53:32.911Z,0.60
2023-01-23T09:56:02.605Z,0.60
2023-01-23T09:58:34.508Z,0.70
2023-01-23T10:01:02.349Z,0.60
2023-01-23T10:03:31.303Z,0.60
2023-01-23T10:06:06.189Z,0.67
2023-01-23T10:08:37.905Z,0.73
2023-01-23T10:11:09.854Z,0.70
2023-01-23T10:13:51.979Z,0.70
2023-01-23T10:16:25.441Z,0.70
2023-01-23T10:18:58.691Z,0.70
2023-01-23T10:21:31.576Z,0.70
2023-01-23T10:24:03.173Z,0.70
2023-01-23T10:26:33.411Z,0.70
2023-01-23T10:29:04.279Z,0.60
2023-01-23T10:31:34.835Z,0.70
2023-01-23T10:34:05.532Z,0.60
2023-01-23T10:36:47.896Z,0.70
2023-01-23T10:39:23.899Z,0.70
2023-01-23T10:42:01.476Z,0.70
2023-01-23T10:44:29.630Z,0.70
2023-01-23T10:46:59.658Z,0.63
2023-01-23T10:49:31.757Z,0.70
2023-01-23T10:52:01.027Z,0.70
2023-01-23T10:54:32.524Z,0.70
2023-01-23T10:57:01.648Z,0.70
2023-01-23T10:59:31.171Z,0.70
2023-01-23T11:02:00.943Z,0.70
2023-01-23T11:04:30.395Z,0.60
2023-01-23T11:07:03.884Z,0.70
2023-01-23T11:09:32.375Z,0.67
2023-01-23T11:12:04.046Z,0.70
2023-01-23T11:14:31.815Z,0.63
2023-01-23T11:17:01.506Z,0.60
2023-01-23T11:19:31.487Z,0.50
2023-01-23T11:22:00.138Z,0.60
2023-01-23T11:24:40.729Z,0.60
2023-01-23T11:27:18.330Z,0.60
2023-01-23T11:29:54.869Z,0.50
2023-01-23T11:32:23.895Z,0.50
2023-01-23T11:34:53.372Z,0.60
2023-01-23T11:37:22.514Z,0.50
2023-01-23T11:39:54.414Z,0.60
2023-01-23T11:42:22.222Z,0.50
2023-01-23T11:44:51.387Z,0.50
2023-01-23T11:47:29.574Z,0.50
2023-01-23T11:50:04.413Z,0.50
2023-01-23T11:52:40.892Z,0.50
2023-01-23T11:55:23.623Z,0.50
2023-01-23T11:57:59.314Z,0.50
2023-01-23T12:00:30.928Z,0.60
2023-01-23T12:03:19.605Z,0.43
2023-01-23T12:05:56.864Z,0.60
2023-01-23T12:08:35.647Z,0.50
2023-01-23T12:11:12.320Z,0.50
2023-01-23T12:13:50.533Z,0.50
2023-01-23T12:16:23.206Z,0.50
2023-01-23T12:19:02.329Z,0.50
2023-01-23T12:21:34.759Z,0.50
2023-01-23T12:24:10.427Z,0.50
2023-01-23T12:26:40.486Z,0.50
2023-01-23T12:29:18.837Z,0.40
2023-01-23T12:31:56.133Z,0.50
2023-01-23T12:34:32.692Z,0.50
2023-01-23T12:37:19.371Z,0.40
2023-01-23T12:39:59.524Z,0.40
2023-01-23T12:42:30.241Z,0.50
2023-01-23T12:45:02.865Z,0.50
2023-01-23T12:47:33.233Z,0.50
2023-01-23T12:50:03.480Z,0.50
2023-01-23T12:52:36.830Z,0.50
2023-01-23T12:55:07.342Z,0.50
2023-01-23T12:58:08.595Z,0.50
2023-01-23T13:00:39.573Z,0.47
2023-01-23T13:03:15.903Z,0.50
2023-01-23T13:05:47.591Z,0.50
2023-01-23T13:08:20.137Z,0.57
2023-01-23T13:11:15.924Z,0.40
2023-01-23T13:13:46.218Z,0.50
2023-01-23T13:16:16.018Z,0.50
2023-01-23T13:19:11.506Z,0.40
2023-01-23T13:22:09.433Z,0.50
2023-01-23T13:25:01.779Z,0.50
2023-01-23T13:27:37.122Z,0.50
2023-01-23T13:30:06.488Z,0.60
2023-01-23T13:32:35.749Z,0.50
2023-01-23T13:35:03.570Z,0.50
2023-01-23T13:37:46.716Z,0.50
2023-01-23T13:40:16.102Z,0.40
2023-01-23T13:42:43.998Z,0.50
2023-01-23T13:45:24.416Z,0.50
2023-01-23T14:22:33.300Z,0.40
2023-01-23T14:25:01.151Z,0.40
2023-01-23T14:27:30.671Z,0.40
2023-01-23T14:29:59.573Z,0.50
2023-01-23T14:32:29.359Z,0.50
2023-01-23T14:34:57.119Z,0.50
2023-01-23T14:37:25.449Z,0.40
2023-01-23T14:39:57.948Z,0.50
2023-01-23T14:42:27.258Z,0.50
2023-01-23T14:44:55.507Z,0.50
2023-01-23T14:47:26.002Z,0.50
2023-01-23T14:49:54.050Z,0.50
2023-01-23T14:52:23.696Z,0.50
2023-01-23T14:54:54.442Z,0.50
2023-01-23T14:57:25.130Z,0.40
2023-01-23T14:59:54.816Z,0.50
2023-01-23T15:02:26.237Z,0.50
2023-01-23T15:05:10.837Z,0.57
2023-01-23T15:07:43.894Z,0.50
2023-01-23T15:10:14.924Z,0.50
2023-01-23T15:12:50.132Z,0.50
2023-01-23T15:15:19.712Z,0.50
2023-01-23T15:17:48.209Z,0.50
2023-01-23T15:20:29.412Z,0.40
2023-01-23T15:22:57.271Z,0.50
2023-01-23T15:25:29.084Z,0.50
2023-01-23T15:27:58.371Z,0.50
2023-01-23T15:30:29.988Z,0.50
2023-01-23T15:32:58.108Z,0.50
2023-01-23T15:35:26.077Z,0.50
2023-01-23T15:37:56.099Z,0.50
2023-01-23T15:40:27.523Z,0.50
2023-01-23T15:43:05.683Z,0.50
2023-01-23T15:45:33.986Z,0.40
2023-01-23T15:48:01.798Z,0.50
2023-01-23T15:50:30.308Z,0.50
2023-01-23T15:52:58.117Z,0.50
2023-01-23T15:55:27.515Z,0.50
2023-01-23T15:57:55.693Z,0.50
2023-01-23T16:00:26.207Z,0.50
2023-01-23T16:02:57.400Z,0.60
2023-01-23T16:05:26.165Z,0.50
2023-01-23T16:07:54.925Z,0.50
2023-01-23T16:10:23.913Z,0.57
2023-01-23T16:12:52.463Z,0.57
2023-01-23T16:15:21.389Z,0.50
2023-01-23T16:17:50.872Z,0.47
2023-01-23T16:20:19.664Z,0.50
2023-01-23T16:22:51.157Z,0.50
2023-01-23T16:25:20.172Z,0.60
2023-01-23T16:27:47.991Z,0.50
2023-01-23T16:30:17.614Z,0.50
2023-01-23T16:32:45.579Z,0.50
2023-01-23T16:35:15.303Z,0.60
2023-01-23T16:37:44.368Z,0.60
2023-01-23T16:40:16.463Z,0.60
2023-01-23T16:42:44.950Z,0.60
2023-01-23T16:45:16.641Z,0.50
2023-01-23T16:47:44.702Z,0.40
2023-01-23T16:50:15.252Z,0.40
2023-01-23T16:52:43.963Z,0.50
2023-01-23T16:55:19.419Z,0.50
2023-01-23T16:57:48.224Z,0.60
2023-01-23T17:00:19.061Z,0.60
2023-01-23T17:02:52.681Z,0.60
2023-01-23T17:05:22.431Z,0.50
2023-01-23T17:07:50.715Z,0.50
2023-01-23T17:10:21.020Z,0.70
2023-01-23T17:12:49.969Z,0.60
2023-01-23T17:15:22.566Z,0.60
2023-01-23T17:17:51.447Z,0.63
2023-01-23T17:20:20.019Z,0.60
2023-01-23T17:22:49.344Z,0.60
2023-01-23T17:25:17.740Z,0.60
2023-01-23T17:27:51.905Z,0.60
2023-01-23T17:30:26.197Z,0.60
2023-01-23T17:32:55.669Z,0.60
2023-01-23T17:35:24.495Z,0.60
2023-01-23T17:37:53.747Z,0.70
2023-01-23T17:40:22.065Z,0.70
2023-01-23T17:42:49.871Z,0.70
2023-01-23T17:45:18.989Z,0.70
2023-01-23T17:47:48.861Z,0.70
2023-01-23T17:50:19.178Z,0.70
2023-01-23T17:52:47.103Z,0.60
2023-01-23T17:55:17.038Z,0.70
2023-01-23T17:57:44.952Z,0.80
2023-01-23T18:00:14.020Z,0.70
2023-01-23T18:02:42.034Z,0.70
2023-01-23T18:05:11.766Z,0.67
2023-01-23T18:07:52.403Z,0.70
2023-01-23T18:10:24.650Z,0.70
2023-01-23T18:13:00.192Z,0.80
2023-01-23T18:15:31.496Z,0.70
2023-01-23T18:18:09.017Z,0.70
2023-01-23T18:20:37.692Z,0.70
2023-01-23T18:23:07.141Z,0.70
2023-01-23T18:25:36.972Z,0.63
2023-01-23T18:28:09.517Z,0.70
2023-01-23T18:30:41.396Z,0.70
2023-01-23T18:33:16.646Z,0.80
2023-01-23T18:36:05.392Z,0.80
2023-01-23T18:38:36.277Z,0.77
2023-01-23T18:41:09.475Z,0.80
2023-01-23T18:43:39.879Z,0.70
2023-01-23T18:46:13.036Z,0.70
2023-01-23T18:48:42.273Z,0.80
2023-01-23T18:51:18.901Z,0.80
2023-01-23T18:53:50.116Z,0.70
2023-01-23T18:56:23.829Z,0.80
2023-01-23T18:59:10.410Z,0.80
2023-01-23T19:01:43.591Z,0.87
2023-01-23T19:04:14.223Z,0.80
2023-01-23T19:06:42.409Z,0.80
2023-01-23T19:09:14.680Z,0.70
2023-01-23T19:11:50.749Z,0.73
2023-01-23T19:14:22.533Z,0.80
2023-01-23T19:16:53.641Z,0.80
2023-01-23T19:19:27.052Z,0.70
2023-01-23T19:21:54.976Z,0.80
2023-01-23T19:24:23.060Z,0.70
2023-01-23T19:26:52.727Z,0.90
2023-01-23T19:29:22.748Z,0.90
2023-01-23T19:32:07.218Z,0.90
2023-01-23T19:34:35.355Z,0.80
2023-01-23T19:37:03.805Z,0.80
2023-01-23T19:39:31.792Z,0.70
2023-01-23T19:42:01.237Z,0.80
2023-01-23T19:44:30.416Z,0.80
2023-01-23T19:46:58.474Z,0.87
2023-01-23T19:49:26.311Z,0.80
2023-01-23T19:51:54.133Z,0.90
2023-01-23T19:54:24.179Z,0.80
2023-01-23T19:56:52.301Z,0.80
2023-01-23T19:59:21.656Z,0.80
2023-01-23T20:01:51.652Z,0.80
2023-01-23T20:04:20.835Z,0.70
2023-01-23T20:06:49.089Z,0.80
2023-01-23T20:09:17.717Z,0.80
2023-01-23T20:11:45.719Z,0.80
2023-01-23T20:14:13.503Z,0.80
2023-01-23T20:16:43.859Z,0.80
2023-01-23T20:19:14.053Z,0.70
2023-01-23T20:21:41.870Z,0.80
2023-01-23T20:24:09.754Z,0.80
2023-01-23T20:26:37.936Z,0.70
2023-01-23T20:29:06.186Z,0.80
2023-01-23T20:31:35.594Z,0.60
2023-01-23T20:34:05.013Z,0.80
2023-01-23T20:36:32.836Z,0.70
2023-01-23T20:39:00.632Z,0.80
2023-01-23T20:41:28.433Z,0.70
2023-01-23T20:43:56.215Z,0.70
2023-01-23T20:46:24.066Z,0.70
2023-01-23T20:48:52.931Z,0.70
2023-01-23T20:51:22.227Z,0.70
2023-01-23T20:53:50.110Z,0.70
2023-01-23T20:56:18.774Z,0.70
2023-01-23T20:59:04.896Z,0.73
2023-01-23T21:01:53.707Z,0.70
2023-01-23T21:04:21.595Z,0.80
2023-01-23T21:06:50.894Z,0.70
2023-01-23T21:09:18.783Z,0.80
2023-01-23T21:11:46.859Z,0.80
2023-01-23T21:14:14.869Z,0.80
2023-01-23T21:16:43.049Z,0.80
2023-01-23T21:19:11.171Z,0.90
2023-01-23T21:21:39.304Z,0.80
2023-01-23T21:24:09.062Z,0.80
2023-01-23T21:26:37.935Z,0.80
2023-01-23T21:29:06.544Z,0.90
2023-01-23T21:31:35.630Z,0.80
2023-01-23T21:34:05.080Z,0.80
2023-01-23T21:36:33.045Z,0.80
2023-01-23T21:39:00.847Z,0.80
2023-01-23T21:41:30.418Z,0.80
2023-01-23T21:43:58.199Z,0.70
2023-01-23T21:46:26.385Z,0.80
2023-01-23T21:48:54.590Z,0.80
2023-01-23T21:51:23.647Z,0.80
2023-01-23T21:53:51.726Z,0.80
2023-01-23T21:56:20.804Z,0.80
2023-01-23T21:58:50.410Z,0.80
2023-01-23T22:01:36.035Z,0.90
2023-01-23T22:04:05.289Z,0.80
2023-01-23T22:06:33.527Z,0.90
2023-01-23T22:09:01.403Z,0.70
2023-01-23T22:11:29.396Z,0.80
2023-01-23T22:13:58.702Z,0.80
2023-01-23T22:16:46.316Z,0.70
2023-01-23T22:19:15.267Z,0.80
2023-01-23T22:21:43.858Z,0.80
2023-01-23T22:24:11.771Z,0.80
2023-01-23T22:26:39.623Z,0.90
2023-01-23T22:29:09.192Z,0.80
2023-01-23T22:31:37.128Z,0.70
2023-01-23T22:34:05.195Z,0.80
2023-01-23T22:36:32.968Z,0.80
2023-01-23T22:39:00.821Z,0.80
2023-01-23T22:41:29.425Z,0.70
2023-01-23T22:43:59.344Z,0.80
2023-01-23T22:46:29.031Z,0.70
2023-01-23T22:48:56.843Z,0.80
2023-01-23T22:51:25.599Z,0.80
2023-01-23T22:53:53.482Z,0.70
2023-01-23T22:56:21.282Z,0.70
2023-01-23T22:58:49.283Z,0.73
2023-01-23T23:01:17.263Z,0.70
2023-01-23T23:03:46.997Z,0.80
2023-01-23T23:06:15.677Z,0.70
2023-01-23T23:08:45.081Z,0.80
2023-01-23T23:11:16.779Z,0.80
2023-01-23T23:13:44.674Z,0.80
2023-01-23T23:16:14.384Z,0.80
2023-01-23T23:18:42.214Z,0.70
2023-01-23T23:21:12.231Z,0.70
2023-01-23T23:23:40.128Z,0.70
2023-01-23T23:26:08.589Z,0.80
2023-01-23T23:28:36.708Z,0.90
2023-01-23T23:31:04.539Z,0.70
2023-01-23T23:33:32.511Z,0.80
2023-01-23T23:36:00.436Z,0.80
2023-01-23T23:38:29.664Z,0.80
2023-01-23T23:40:58.197Z,0.70
2023-01-23T23:43:26.514Z,0.70
2023-01-23T23:45:54.706Z,0.70
2023-01-23T23:48:23.106Z,0.90
2023-01-23T23:50:50.867Z,0.80
2023-01-23T23:53:19.076Z,0.83
2023-01-23T23:55:48.573Z,0.80
2023-01-23T23:58:16.691Z,0.80
